Time;durP1;ratioP1;P1;durP2;ratioP2;P2;SDS_P1;SDS_P2;PMS_P1;PMS_P2;Temp;Humidity;BMP_temperature;BMP_pressure;BME280_temperature;BME280_humidity;BME280_pressure;Samples;Min_cycle;Max_cycle;Signal;HPM_P1;HPM_P2
2022/01/23 00:00:18;;;;;;;3.42;2.37;;;-7.50;99.90;;;;;;4391865;32;20168;-68
2022/01/23 00:02:50;;;;;;;4.82;1.90;;;-7.50;99.90;;;;;;4367513;32;20152;-68
2022/01/23 00:05:20;;;;;;;3.08;2.05;;;-7.50;99.90;;;;;;4377950;32;20082;-68
2022/01/23 00:07:46;;;;;;;2.17;1.77;;;-7.30;99.90;;;;;;4353601;32;20068;-66
2022/01/23 00:10:13;;;;;;;2.25;1.80;;;-7.60;99.90;;;;;;4377334;32;20620;-68
2022/01/23 00:12:46;;;;;;;3.85;2.12;;;-7.50;99.90;;;;;;4391521;32;20081;-68
2022/01/23 00:17:58;;;;;;;4.35;2.30;;;-7.30;99.90;;;;;;4367674;32;20110;-68
2022/01/23 00:20:24;;;;;;;2.50;1.65;;;-7.40;99.90;;;;;;4377891;32;20100;-70
2022/01/23 00:22:58;;;;;;;3.70;2.53;;;-7.40;99.90;;;;;;4391750;32;20165;-66
2022/01/23 00:31:00;;;;;;;3.25;2.00;;;-7.30;99.90;;;;;;4391507;32;20077;-67
2022/01/23 00:33:27;;;;;;;4.10;2.30;;;-7.30;99.90;;;;;;4352796;32;20104;-67
2022/01/23 00:35:54;;;;;;;3.60;2.10;;;-7.20;99.90;;;;;;4391156;32;20082;-66
2022/01/23 00:38:22;;;;;;;3.90;2.20;;;-7.30;99.90;;;;;;4377598;32;20093;-66
2022/01/23 00:40:48;;;;;;;3.33;2.17;;;-7.20;99.90;;;;;;4377509;32;20152;-66
2022/01/23 00:43:30;;;;;;;3.58;2.10;;;-7.30;99.90;;;;;;4377618;32;20532;-67
2022/01/23 00:46:11;;;;;;;2.83;2.10;;;-7.20;99.90;;;;;;4377597;32;20082;-67
2022/01/23 00:48:49;;;;;;;3.58;2.17;;;-7.20;99.90;;;;;;4378680;32;20150;-67
2022/01/23 00:51:16;;;;;;;3.53;2.30;;;-7.20;99.90;;;;;;4377782;32;20086;-67
2022/01/23 00:53:42;;;;;;;3.70;2.17;;;-7.20;99.90;;;;;;4377135;32;20149;-67
2022/01/23 00:56:09;;;;;;;3.03;1.90;;;-7.20;99.90;;;;;;4366731;32;20161;-67
2022/01/23 00:58:35;;;;;;;2.45;2.03;;;-7.20;99.90;;;;;;4380275;32;20162;-67
2022/01/23 01:01:02;;;;;;;3.50;2.28;;;-7.20;99.90;;;;;;4380423;32;20089;-67
2022/01/23 01:03:28;;;;;;;3.85;2.12;;;-7.20;99.90;;;;;;4367604;32;20101;-68
2022/01/23 01:05:55;;;;;;;3.08;2.05;;;-7.20;99.90;;;;;;4393941;32;20073;-67
2022/01/23 01:08:21;;;;;;;3.05;1.80;;;-7.10;99.90;;;;;;4394307;32;20100;-68
2022/01/23 01:11:07;;;;;;;2.40;1.98;;;-7.10;99.90;;;;;;4367674;32;20101;-68
2022/01/23 01:35:16;;;;;;;2.60;1.98;;;-7.30;99.90;;;;;;4393572;32;20153;-68
2022/01/23 01:37:42;;;;;;;4.22;2.08;;;-7.40;99.90;;;;;;4369155;32;20072;-68
2022/01/23 01:40:09;;;;;;;3.65;1.90;;;-7.30;99.90;;;;;;4379945;32;20162;-68
2022/01/23 01:42:35;;;;;;;2.53;1.50;;;-7.40;99.90;;;;;;4379860;32;20169;-67
2022/01/23 01:45:04;;;;;;;3.22;1.95;;;-7.40;99.90;;;;;;4379404;32;20097;-68
2022/01/23 01:47:30;;;;;;;2.42;1.67;;;-7.50;99.90;;;;;;4367170;32;20081;-67
2022/01/23 01:49:56;;;;;;;4.12;1.83;;;-7.50;99.90;;;;;;4380207;32;20074;-68
2022/01/23 01:52:23;;;;;;;4.05;1.90;;;-7.50;99.90;;;;;;4368984;32;20153;-68
2022/01/23 01:54:59;;;;;;;2.97;1.90;;;-7.40;99.90;;;;;;4371418;32;20161;-66
2022/01/23 01:57:30;;;;;;;2.70;1.75;;;-7.40;99.90;;;;;;4381982;32;20085;-68
2022/01/23 02:00:37;;;;;;;3.22;1.90;;;-7.50;99.90;;;;;;4381299;32;20073;-67
2022/01/23 02:08:28;;;;;;;3.53;2.17;;;-7.60;99.90;;;;;;4395942;32;20523;-67
2022/01/23 02:11:10;;;;;;;3.22;1.77;;;-7.70;99.90;;;;;;4367855;32;20094;-67
2022/01/23 02:13:44;;;;;;;3.60;2.30;;;-7.70;99.90;;;;;;4367732;32;20081;-68
2022/01/23 02:54:45;;;;;;;2.58;2.10;;;-7.70;99.90;;;;;;4379048;32;20101;-68
2022/01/23 02:57:19;;;;;;;5.05;2.20;;;-7.50;99.90;;;;;;4379007;32;20451;-66
2022/01/23 02:59:46;;;;;;;3.00;2.03;;;-7.50;99.90;;;;;;4366307;32;20103;-67
2022/01/23 03:02:39;;;;;;;3.17;1.98;;;-7.60;99.90;;;;;;4366186;32;20089;-67
2022/01/23 03:05:12;;;;;;;1.27;1.12;;;-7.50;99.90;;;;;;4368903;32;20066;-68
2022/01/23 03:08:01;;;;;;;2.67;1.90;;;-7.60;99.90;;;;;;4378490;32;20130;-67
2022/01/23 03:10:42;;;;;;;3.15;1.95;;;-7.70;99.90;;;;;;4378397;32;20076;-68
2022/01/23 03:13:40;;;;;;;3.83;1.70;;;-7.70;99.90;;;;;;4380001;32;20524;-67
2022/01/23 03:34:26;;;;;;;2.60;1.95;;;-7.60;99.90;;;;;;4377844;32;20124;-67
2022/01/23 03:36:53;;;;;;;3.37;2.10;;;-7.40;99.90;;;;;;4378214;32;20090;-67
2022/01/23 03:42:09;;;;;;;2.77;2.00;;;-7.60;99.90;;;;;;3834309;37;20058;-68
2022/01/23 03:44:40;;;;;;;2.45;2.08;;;-7.40;99.90;;;;;;4390682;32;20077;-67
2022/01/23 03:47:22;;;;;;;4.12;2.12;;;-7.30;99.90;;;;;;4404553;32;20162;-66
2022/01/23 03:49:50;;;;;;;2.70;1.87;;;-7.40;99.90;;;;;;4379471;32;20087;-67
2022/01/23 03:52:16;;;;;;;2.80;1.85;;;-7.40;99.90;;;;;;4377760;32;20085;-67
2022/01/23 03:54:44;;;;;;;2.95;2.00;;;-7.40;99.90;;;;;;4391152;32;20091;-67
2022/01/23 03:57:10;;;;;;;2.87;1.90;;;-7.40;99.90;;;;;;4365413;32;20089;-68
2022/01/23 03:59:38;;;;;;;2.65;2.03;;;-7.40;99.90;;;;;;4404420;32;20084;-68
2022/01/23 04:02:06;;;;;;;3.42;1.87;;;-7.40;99.90;;;;;;4390595;32;20074;-68
2022/01/23 04:06:59;;;;;;;3.80;2.12;;;-7.30;99.90;;;;;;4390738;32;20177;-68
2022/01/23 04:09:25;;;;;;;3.53;2.25;;;-7.30;99.90;;;;;;4390334;32;20093;-68
2022/01/23 04:11:52;;;;;;;3.30;2.20;;;-7.20;99.90;;;;;;4404047;32;20120;-67
2022/01/23 04:14:21;;;;;;;3.10;1.85;;;-7.20;99.90;;;;;;4390242;32;20436;-67
2022/01/23 04:19:32;;;;;;;3.78;2.15;;;-7.30;99.90;;;;;;4400248;32;20093;-67
2022/01/23 05:00:15;;;;;;;4.50;2.37;;;-7.20;99.90;;;;;;4365204;32;20090;-67
2022/01/23 05:05:32;;;;;;;4.30;2.22;;;-7.20;99.90;;;;;;4378444;32;20097;-67
2022/01/23 05:08:00;;;;;;;3.25;2.20;;;-7.10;99.90;;;;;;4364504;32;20154;-67
2022/01/23 05:10:27;;;;;;;2.83;2.17;;;-7.10;99.90;;;;;;4365669;32;20174;-67
2022/01/23 05:12:54;;;;;;;2.87;2.10;;;-7.00;99.90;;;;;;4340666;32;20182;-66
2022/01/23 05:15:21;;;;;;;4.15;1.83;;;-7.20;99.90;;;;;;4364069;32;20531;-67
2022/01/23 05:17:48;;;;;;;3.42;2.12;;;-7.10;99.90;;;;;;4378082;32;20100;-66
2022/01/23 05:20:16;;;;;;;2.55;1.98;;;-7.10;99.90;;;;;;4352423;32;20102;-67
2022/01/23 05:22:47;;;;;;;4.60;1.92;;;-7.10;99.90;;;;;;4352670;32;20155;-67
2022/01/23 05:27:43;;;;;;;3.28;1.95;;;-7.00;99.90;;;;;;4352489;32;20155;-67
2022/01/23 05:30:10;;;;;;;2.67;1.90;;;-6.90;99.90;;;;;;4364392;32;20069;-67
2022/01/23 05:32:41;;;;;;;3.35;2.20;;;-7.00;99.90;;;;;;4351754;32;20498;-67
2022/01/23 05:35:11;;;;;;;1.95;1.52;;;-6.90;99.90;;;;;;4352176;32;20066;-67
2022/01/23 05:37:38;;;;;;;3.12;2.08;;;-7.00;99.90;;;;;;4364265;32;20165;-67
2022/01/23 05:40:12;;;;;;;3.65;2.00;;;-7.00;99.90;;;;;;4352886;32;20157;-67
2022/01/23 05:42:38;;;;;;;3.10;1.75;;;-7.00;99.90;;;;;;4364554;32;20106;-66
2022/01/23 05:45:06;;;;;;;2.72;2.03;;;-6.90;99.90;;;;;;4364267;32;20166;-66
2022/01/23 05:47:32;;;;;;;3.15;1.90;;;-6.80;99.90;;;;;;4363773;32;20500;-67
2022/01/23 05:49:58;;;;;;;2.58;1.60;;;-6.70;99.90;;;;;;4364312;32;20090;-66
2022/01/23 05:52:25;;;;;;;2.40;1.70;;;-6.70;99.90;;;;;;4377605;32;20078;-67
2022/01/23 05:54:51;;;;;;;3.05;2.12;;;-6.70;99.90;;;;;;4339371;32;20078;-67
2022/01/23 05:57:17;;;;;;;2.12;1.48;;;-6.90;99.90;;;;;;4377649;32;20085;-67
2022/01/23 05:59:44;;;;;;;3.62;1.80;;;-7.00;99.90;;;;;;4351945;32;20090;-67
2022/01/23 06:02:10;;;;;;;2.58;1.90;;;-7.10;99.90;;;;;;4363637;32;20508;-66
2022/01/23 06:04:36;;;;;;;2.28;1.85;;;-7.10;99.90;;;;;;4362858;32;20090;-66
2022/01/23 06:07:03;;;;;;;3.40;2.00;;;-7.00;99.90;;;;;;4339244;32;20089;-68
2022/01/23 06:09:30;;;;;;;2.25;1.50;;;-7.00;99.90;;;;;;4363492;32;20524;-67
2022/01/23 06:11:56;;;;;;;2.70;2.00;;;-6.70;99.90;;;;;;4377386;32;20098;-67
2022/01/23 06:14:23;;;;;;;3.65;2.20;;;-6.70;99.90;;;;;;4363640;32;20546;-67
2022/01/23 06:16:49;;;;;;;2.70;1.67;;;-6.60;99.90;;;;;;4363259;32;20514;-66
2022/01/23 06:19:15;;;;;;;2.90;1.67;;;-6.70;99.90;;;;;;4363408;32;20093;-67
2022/01/23 06:21:42;;;;;;;2.20;1.60;;;-6.80;99.90;;;;;;4363863;32;20559;-67
2022/01/23 06:24:29;;;;;;;2.55;1.55;;;-6.80;99.90;;;;;;4350909;32;20159;-67
2022/01/23 06:26:59;;;;;;;1.77;1.23;;;-6.80;99.90;;;;;;4353175;32;20088;-67
2022/01/23 06:29:30;;;;;;;2.58;1.42;;;-6.80;99.90;;;;;;4364073;32;20076;-67
2022/01/23 06:32:00;;;;;;;2.37;1.75;;;-6.90;99.90;;;;;;4339414;32;20153;-67
2022/01/23 06:34:27;;;;;;;1.95;1.70;;;-6.60;99.90;;;;;;4350903;32;20149;-67
2022/01/23 06:36:54;;;;;;;2.78;2.08;;;-6.40;99.90;;;;;;4350942;32;20224;-66
2022/01/23 06:39:22;;;;;;;3.60;1.70;;;-6.20;99.90;;;;;;4339107;32;20082;-67
2022/01/23 06:41:49;;;;;;;2.62;1.50;;;-6.30;99.90;;;;;;4351029;32;20100;-67
2022/01/23 06:44:16;;;;;;;1.83;1.65;;;-6.40;99.90;;;;;;4339314;32;20171;-67
2022/01/23 06:46:42;;;;;;;2.42;1.85;;;-6.20;99.90;;;;;;4350796;32;20087;-67
2022/01/23 06:49:10;;;;;;;1.92;1.30;;;-6.10;99.90;;;;;;4350939;32;20543;-67
2022/01/23 06:51:37;;;;;;;1.95;1.37;;;-6.30;99.90;;;;;;4363599;32;20173;-66
2022/01/23 06:54:04;;;;;;;1.30;1.20;;;-6.40;99.90;;;;;;4350741;32;20513;-67
2022/01/23 06:56:30;;;;;;;1.42;1.30;;;-6.50;99.90;;;;;;4351472;32;20093;-67
2022/01/23 06:58:57;;;;;;;2.30;1.52;;;-6.20;99.90;;;;;;4364600;32;20149;-67
2022/01/23 07:01:23;;;;;;;2.87;1.77;;;-6.20;99.90;;;;;;4364943;32;20479;-67
2022/01/23 07:03:50;;;;;;;1.30;1.12;;;-6.30;99.90;;;;;;4381020;32;20074;-67
2022/01/23 07:06:17;;;;;;;2.58;1.77;;;-6.00;99.90;;;;;;4341677;32;20150;-67
2022/01/23 07:08:45;;;;;;;2.62;1.85;;;-6.10;99.90;;;;;;4341413;32;20077;-67
2022/01/23 07:11:12;;;;;;;1.58;1.35;;;-6.40;99.90;;;;;;4341869;32;20066;-67
2022/01/23 07:13:38;;;;;;;1.90;1.33;;;-6.30;99.90;;;;;;4342212;32;20082;-67
2022/01/23 07:16:06;;;;;;;2.33;1.52;;;-6.20;99.90;;;;;;4363456;32;20073;-67
2022/01/23 07:18:33;;;;;;;2.60;1.70;;;-6.00;99.90;;;;;;4378080;32;20072;-68
2022/01/23 07:21:00;;;;;;;1.98;1.60;;;-6.10;99.90;;;;;;4383316;32;20104;-66
2022/01/23 07:23:26;;;;;;;1.95;1.48;;;-5.80;99.90;;;;;;4371732;32;20089;-67
2022/01/23 07:25:53;;;;;;;2.62;1.73;;;-5.60;98.90;;;;;;4358315;32;20085;-68
2022/01/23 07:28:22;;;;;;;1.50;1.37;;;-5.50;99.90;;;;;;4356215;32;20161;-67
2022/01/23 07:30:51;;;;;;;2.97;1.83;;;-5.90;99.70;;;;;;4363934;32;20134;-66
2022/01/23 07:33:18;;;;;;;3.15;1.58;;;-6.00;99.60;;;;;;4350866;32;20076;-67
2022/01/23 07:35:46;;;;;;;2.17;1.62;;;-6.00;99.20;;;;;;4363618;32;20089;-67
2022/01/23 07:38:16;;;;;;;2.15;1.60;;;-6.20;99.10;;;;;;4351090;32;20245;-67
2022/01/23 07:40:48;;;;;;;1.70;1.40;;;-6.20;98.80;;;;;;4362875;32;20086;-67
2022/01/23 07:43:15;;;;;;;3.00;1.60;;;-6.30;99.00;;;;;;4377013;32;20082;-66
2022/01/23 07:45:42;;;;;;;2.78;1.73;;;-6.40;99.00;;;;;;4337637;32;20142;-67
2022/01/23 07:48:09;;;;;;;1.90;1.62;;;-6.30;99.70;;;;;;4350073;32;20082;-67
2022/01/23 07:50:36;;;;;;;2.50;1.75;;;-6.50;99.30;;;;;;4350930;32;20077;-67
2022/01/23 07:53:04;;;;;;;2.62;1.85;;;-6.00;98.60;;;;;;4349999;32;20078;-67
2022/01/23 07:55:31;;;;;;;3.00;1.40;;;-6.20;98.00;;;;;;4362457;32;20096;-67
2022/01/23 07:58:04;;;;;;;2.15;1.30;;;-6.40;98.50;;;;;;4362542;32;20090;-68
2022/01/23 08:00:30;;;;;;;2.22;1.52;;;-6.30;98.30;;;;;;4350605;32;20101;-67
2022/01/23 08:02:57;;;;;;;2.45;1.50;;;-6.30;97.80;;;;;;4350213;32;20160;-67
2022/01/23 08:05:23;;;;;;;2.45;1.48;;;-6.00;97.80;;;;;;4350486;32;20495;-67
2022/01/23 08:07:50;;;;;;;2.05;1.73;;;-5.90;97.70;;;;;;4354513;32;20078;-68
2022/01/23 08:10:16;;;;;;;2.42;1.83;;;-5.70;97.10;;;;;;4357562;32;20088;-67
2022/01/23 08:12:43;;;;;;;2.90;2.00;;;-5.40;97.10;;;;;;4358616;32;20078;-67
2022/01/23 08:15:10;;;;;;;1.58;1.45;;;-5.80;97.20;;;;;;4376510;32;20071;-67
2022/01/23 08:17:36;;;;;;;2.37;1.70;;;-5.90;96.60;;;;;;4376468;32;20168;-66
2022/01/23 08:20:04;;;;;;;2.50;1.67;;;-6.00;97.60;;;;;;4349964;32;20071;-66
2022/01/23 08:22:32;;;;;;;2.65;1.33;;;-6.10;97.40;;;;;;4350119;32;20531;-66
2022/01/23 08:25:01;;;;;;;2.15;1.40;;;-6.30;98.10;;;;;;4350120;32;20074;-66
2022/01/23 08:27:28;;;;;;;2.78;1.77;;;-6.00;97.70;;;;;;4363995;32;20149;-67
2022/01/23 08:29:55;;;;;;;3.22;1.50;;;-6.00;98.00;;;;;;4365529;32;20084;-66
2022/01/23 08:32:21;;;;;;;2.75;1.67;;;-6.00;97.40;;;;;;4364804;32;20067;-66
2022/01/23 08:34:49;;;;;;;3.05;1.80;;;-6.00;97.50;;;;;;4365497;32;20069;-67
2022/01/23 08:37:15;;;;;;;5.25;1.92;;;-5.60;97.40;;;;;;4365511;32;20085;-67
2022/01/23 08:39:42;;;;;;;2.47;1.70;;;-5.40;96.30;;;;;;4364964;32;20445;-67
2022/01/23 08:42:15;;;;;;;2.22;1.70;;;-5.50;95.50;;;;;;4379213;32;20083;-66
2022/01/23 08:44:43;;;;;;;1.90;1.23;;;-5.50;96.00;;;;;;4352647;32;20146;-66
2022/01/23 08:47:09;;;;;;;3.12;1.65;;;-5.90;97.00;;;;;;4352388;32;20089;-67
2022/01/23 08:49:44;;;;;;;2.00;1.40;;;-6.00;96.90;;;;;;4368508;32;20062;-67
2022/01/23 08:52:12;;;;;;;2.62;1.77;;;-5.90;97.30;;;;;;4353153;32;20082;-67
2022/01/23 08:54:39;;;;;;;2.17;1.50;;;-5.70;96.90;;;;;;4364698;32;20070;-67
2022/01/23 08:57:06;;;;;;;2.00;1.75;;;-5.70;96.70;;;;;;4378339;32;20444;-67
2022/01/23 08:59:32;;;;;;;2.28;1.50;;;-5.30;96.10;;;;;;4364750;32;20584;-66
2022/01/23 09:01:59;;;;;;;2.72;1.83;;;-5.20;95.70;;;;;;4378175;32;20078;-66
2022/01/23 09:04:25;;;;;;;2.00;1.58;;;-5.60;95.80;;;;;;4364176;32;20080;-66
2022/01/23 09:06:52;;;;;;;3.42;2.08;;;-5.50;96.70;;;;;;4379428;32;20073;-67
2022/01/23 09:09:19;;;;;;;2.85;1.98;;;-5.30;95.90;;;;;;4378985;32;20078;-66
2022/01/23 09:14:20;;;;;;;3.78;1.90;;;-5.40;96.10;;;;;;4364953;32;20094;-66
2022/01/23 09:16:50;;;;;;;2.80;1.90;;;-5.30;96.50;;;;;;4352052;32;20074;-66
2022/01/23 09:19:18;;;;;;;2.33;1.60;;;-5.30;96.10;;;;;;4351786;32;20078;-66
2022/01/23 09:21:49;;;;;;;2.10;1.30;;;-5.20;96.40;;;;;;4364397;32;20472;-66
2022/01/23 09:24:18;;;;;;;2.85;1.80;;;-5.40;96.60;;;;;;4352343;32;20090;-66
2022/01/23 09:26:51;;;;;;;1.80;1.55;;;-5.40;96.90;;;;;;4364080;32;20070;-67
2022/01/23 09:29:31;;;;;;;2.37;1.62;;;-5.20;96.70;;;;;;4353121;32;20181;-68
2022/01/23 09:31:58;;;;;;;1.90;1.48;;;-5.00;96.40;;;;;;4366211;32;20085;-67
2022/01/23 09:34:29;;;;;;;1.62;1.50;;;-5.10;95.90;;;;;;4364455;32;20089;-67
2022/01/23 09:36:57;;;;;;;2.12;1.50;;;-5.00;96.00;;;;;;4351601;32;20501;-67
2022/01/23 09:39:25;;;;;;;2.67;1.62;;;-4.50;96.50;;;;;;4364163;32;20078;-67
2022/01/23 09:41:57;;;;;;;1.85;1.50;;;-4.50;95.70;;;;;;4363656;32;20133;-66
2022/01/23 09:44:26;;;;;;;2.20;1.40;;;-4.70;94.40;;;;;;4363905;32;20105;-69
2022/01/23 09:46:56;;;;;;;3.20;1.90;;;-5.10;95.60;;;;;;4351914;32;20105;-66
2022/01/23 09:49:25;;;;;;;1.87;1.40;;;-5.20;96.00;;;;;;4364514;32;20089;-66
2022/01/23 09:51:55;;;;;;;2.70;1.60;;;-4.90;96.70;;;;;;4340611;32;20097;-67
2022/01/23 09:54:22;;;;;;;2.22;1.42;;;-4.50;95.10;;;;;;4352315;32;20151;-67
2022/01/23 09:56:48;;;;;;;2.17;1.65;;;-5.10;95.80;;;;;;4339280;32;20108;-68
2022/01/23 09:59:16;;;;;;;3.15;1.35;;;-5.00;95.70;;;;;;4351607;32;20093;-66
2022/01/23 10:01:45;;;;;;;1.58;1.45;;;-4.90;95.20;;;;;;4364045;32;20077;-66
2022/01/23 10:04:11;;;;;;;2.17;1.52;;;-4.80;95.00;;;;;;4365439;32;20516;-67
2022/01/23 10:06:38;;;;;;;2.00;1.67;;;-4.30;94.60;;;;;;4363474;32;20086;-66
2022/01/23 10:09:06;;;;;;;2.12;1.48;;;-4.20;94.50;;;;;;4364095;32;20073;-68
2022/01/23 10:11:38;;;;;;;3.17;1.65;;;-4.50;94.20;;;;;;4351381;32;20150;-66
2022/01/23 10:14:05;;;;;;;1.92;1.55;;;-4.30;94.60;;;;;;4364068;32;20094;-66
2022/01/23 10:16:32;;;;;;;2.50;1.58;;;-4.40;93.70;;;;;;4351786;32;20090;-67
2022/01/23 10:19:01;;;;;;;3.55;1.60;;;-4.40;93.30;;;;;;4363554;32;20489;-66
2022/01/23 10:21:32;;;;;;;1.92;1.52;;;-4.40;93.80;;;;;;4363362;32;20157;-67
2022/01/23 10:23:59;;;;;;;2.85;1.90;;;-4.30;93.40;;;;;;4363155;32;20077;-67
2022/01/23 10:26:46;;;;;;;1.85;1.55;;;-4.30;93.40;;;;;;4377042;32;20158;-67
2022/01/23 10:29:21;;;;;;;3.37;1.90;;;-4.40;93.20;;;;;;4364079;32;20081;-67
2022/01/23 10:32:11;;;;;;;5.70;2.90;;;-4.30;92.90;;;;;;4351417;32;20094;-67
2022/01/23 10:34:48;;;;;;;3.22;1.90;;;-4.30;93.10;;;;;;4363858;32;20097;-66
2022/01/23 10:37:37;;;;;;;2.03;1.45;;;-4.30;92.60;;;;;;4377632;32;20074;-68
2022/01/23 10:40:21;;;;;;;2.35;1.55;;;-4.00;93.10;;;;;;4362856;32;20149;-67
2022/01/23 10:48:39;;;;;;;3.05;1.70;;;-4.10;91.60;;;;;;4376692;32;20067;-67
2022/01/23 10:51:28;;;;;;;2.35;1.67;;;-4.60;92.60;;;;;;4362801;32;20151;-67
2022/01/23 10:54:07;;;;;;;4.10;1.73;;;-4.30;92.40;;;;;;4351636;32;20163;-66
2022/01/23 10:57:02;;;;;;;1.90;1.50;;;-4.20;92.30;;;;;;4351193;32;20085;-66
2022/01/23 10:59:52;;;;;;;2.80;1.60;;;-4.20;91.80;;;;;;4346076;32;20066;-66
2022/01/23 11:02:25;;;;;;;1.87;1.42;;;-4.70;93.10;;;;;;4362781;32;20085;-67
2022/01/23 11:05:01;;;;;;;2.22;1.62;;;-4.70;92.90;;;;;;4362631;32;20075;-66
2022/01/23 11:07:31;;;;;;;2.42;1.90;;;-4.50;93.30;;;;;;4350364;32;20172;-66
2022/01/23 11:10:06;;;;;;;3.00;1.80;;;-4.30;93.60;;;;;;4350463;32;20102;-66
2022/01/23 11:17:59;;;;;;;3.15;1.60;;;-4.80;93.20;;;;;;4362435;32;20516;-66
2022/01/23 11:20:34;;;;;;;2.10;1.50;;;-4.60;93.40;;;;;;4350282;32;20547;-66
2022/01/23 11:23:19;;;;;;;3.17;2.03;;;-4.60;92.80;;;;;;4363031;32;20147;-67
2022/01/23 11:26:06;;;;;;;2.60;1.37;;;-4.60;93.00;;;;;;4362608;32;20080;-67
2022/01/23 11:28:37;;;;;;;2.60;1.80;;;-4.90;93.40;;;;;;4363674;32;20167;-66
2022/01/23 11:31:11;;;;;;;2.80;1.70;;;-4.80;93.80;;;;;;4351446;32;20078;-67
2022/01/23 11:33:38;;;;;;;3.47;1.87;;;-4.70;93.60;;;;;;4337860;32;20149;-66
2022/01/23 11:36:05;;;;;;;2.87;1.90;;;-4.50;93.30;;;;;;4362762;32;20078;-66
2022/01/23 11:38:32;;;;;;;2.60;1.90;;;-4.60;92.80;;;;;;4362463;32;20524;-66
2022/01/23 11:54:48;;;;;;;4.68;2.05;;;-5.00;93.90;;;;;;4376744;32;20074;-66
2022/01/23 11:57:36;;;;;;;2.75;1.80;;;-4.90;94.00;;;;;;4363218;32;20075;-67
2022/01/23 12:00:26;;;;;;;3.28;1.90;;;-4.90;94.00;;;;;;4362568;32;20177;-66
2022/01/23 12:03:17;;;;;;;3.50;1.95;;;-5.00;94.40;;;;;;4363902;32;20082;-66
2022/01/23 12:05:46;;;;;;;4.35;2.05;;;-4.70;94.00;;;;;;4353224;32;20446;-66
2022/01/23 12:08:35;;;;;;;3.33;2.05;;;-4.50;94.30;;;;;;4340853;32;20085;-66
2022/01/23 12:11:38;;;;;;;2.78;2.10;;;-4.40;93.90;;;;;;4353232;32;20074;-67
2022/01/23 12:17:03;;;;;;;2.87;1.90;;;-4.80;93.80;;;;;;4366546;32;20086;-66
2022/01/23 12:19:53;;;;;;;3.28;1.87;;;-4.70;94.10;;;;;;4365534;32;20070;-66
2022/01/23 12:22:39;;;;;;;4.25;2.40;;;-4.70;94.40;;;;;;4354703;32;20086;-67
2022/01/23 12:25:12;;;;;;;3.95;2.17;;;-4.60;93.30;;;;;;4340996;32;20601;-68
2022/01/23 12:27:39;;;;;;;2.83;1.90;;;-4.70;93.70;;;;;;4353849;32;20160;-67
2022/01/23 12:30:31;;;;;;;3.45;2.10;;;-4.90;92.20;;;;;;4364980;32;20074;-68
2022/01/23 12:33:19;;;;;;;3.25;1.98;;;-5.00;92.20;;;;;;4353294;32;20078;-66
2022/01/23 12:35:51;;;;;;;3.05;1.90;;;-4.80;91.80;;;;;;4379685;32;20086;-68
2022/01/23 12:38:19;;;;;;;3.28;2.33;;;-4.90;92.10;;;;;;4352546;32;20071;-66
2022/01/23 12:40:49;;;;;;;3.05;2.05;;;-4.90;93.50;;;;;;4378447;32;20070;-66
2022/01/23 12:43:25;;;;;;;4.00;2.30;;;-4.80;94.50;;;;;;4379101;32;20089;-66
2022/01/23 12:46:01;;;;;;;3.83;2.27;;;-4.90;92.40;;;;;;4343646;32;20097;-68
2022/01/23 12:48:32;;;;;;;2.85;1.92;;;-5.10;91.60;;;;;;4387577;32;20076;-67
2022/01/23 12:51:14;;;;;;;3.60;2.22;;;-5.10;91.40;;;;;;4377019;32;20073;-65
2022/01/23 12:53:46;;;;;;;3.15;2.10;;;-5.20;91.80;;;;;;4378754;32;20126;-70
2022/01/23 12:56:17;;;;;;;3.97;2.35;;;-5.30;91.90;;;;;;4388078;32;20081;-67
2022/01/23 12:58:53;;;;;;;2.00;1.70;;;-5.40;91.80;;;;;;4372637;32;20518;-67
2022/01/23 13:01:24;;;;;;;4.00;2.20;;;-5.40;92.40;;;;;;4352886;32;20159;-68
2022/01/23 13:04:02;;;;;;;3.92;2.15;;;-5.20;92.20;;;;;;4365986;32;20070;-67
2022/01/23 13:06:55;;;;;;;4.10;2.20;;;-5.40;92.60;;;;;;4364522;32;20101;-67
2022/01/23 13:34:36;;;;;;;4.20;2.53;;;-5.30;94.20;;;;;;4365254;32;20187;-67
2022/01/23 13:37:32;;;;;;;4.20;2.72;;;-5.30;95.10;;;;;;4364816;32;20101;-66
2022/01/23 13:40:04;;;;;;;6.68;3.42;;;-5.10;95.60;;;;;;4363431;32;20114;-66
2022/01/23 13:59:55;;;;;;;5.12;3.37;;;-5.40;97.20;;;;;;4353047;32;20508;-66
2022/01/23 14:02:24;;;;;;;6.57;3.90;;;-5.30;97.90;;;;;;4352021;32;20449;-67
2022/01/23 14:05:09;;;;;;;5.05;3.40;;;-5.20;97.80;;;;;;4363883;32;20155;-67
2022/01/23 14:07:36;;;;;;;5.70;3.60;;;-5.40;98.10;;;;;;4379160;32;20160;-68
2022/01/23 14:10:20;;;;;;;6.15;3.72;;;-5.30;99.00;;;;;;4378486;32;20166;-67
2022/01/23 14:12:52;;;;;;;5.93;3.90;;;-5.40;98.50;;;;;;4363384;32;20081;-66
2022/01/23 14:15:24;;;;;;;6.50;3.50;;;-5.50;99.50;;;;;;4338981;32;20488;-68
2022/01/23 14:18:10;;;;;;;6.25;3.80;;;-5.50;98.70;;;;;;4354009;32;20162;-65
2022/01/23 14:20:45;;;;;;;6.20;3.50;;;-5.50;98.60;;;;;;4355708;32;20081;-68
2022/01/23 14:23:23;;;;;;;6.10;3.75;;;-5.80;99.00;;;;;;4354130;32;20166;-66
2022/01/23 14:25:53;;;;;;;6.18;4.05;;;-5.90;98.20;;;;;;4364026;32;20150;-67
2022/01/23 14:28:28;;;;;;;6.55;3.90;;;-5.90;98.50;;;;;;4339962;32;20155;-67
2022/01/23 14:30:59;;;;;;;6.85;3.72;;;-5.70;98.80;;;;;;4364675;32;20112;-67
2022/01/23 14:33:34;;;;;;;7.53;3.90;;;-5.80;99.20;;;;;;4351569;32;20081;-66
2022/01/23 14:36:19;;;;;;;6.93;4.07;;;-5.80;99.30;;;;;;4353312;32;20102;-66
2022/01/23 14:38:59;;;;;;;6.50;3.80;;;-5.60;99.70;;;;;;4358788;32;20075;-66
2022/01/23 14:41:31;;;;;;;6.70;3.62;;;-5.80;98.70;;;;;;4370284;32;20086;-66
2022/01/23 14:43:59;;;;;;;6.12;3.20;;;-5.80;98.10;;;;;;4344920;32;20217;-66
2022/01/23 14:46:25;;;;;;;6.78;3.17;;;-5.70;97.50;;;;;;4367832;32;20082;-66
2022/01/23 14:48:59;;;;;;;5.37;3.10;;;-5.80;97.50;;;;;;4367520;32;20090;-66
2022/01/23 14:51:27;;;;;;;7.70;4.22;;;-5.70;98.00;;;;;;4354077;32;20070;-66
2022/01/23 14:53:54;;;;;;;5.68;3.17;;;-5.70;97.70;;;;;;4366937;32;20081;-66
2022/01/23 14:56:21;;;;;;;4.82;3.17;;;-5.70;99.80;;;;;;4382796;32;20071;-66
2022/01/23 14:58:51;;;;;;;5.50;3.50;;;-5.60;99.10;;;;;;4352967;32;20082;-66
2022/01/23 15:01:18;;;;;;;6.15;3.28;;;-5.70;98.10;;;;;;4364252;32;20158;-66
2022/01/23 15:03:55;;;;;;;6.45;3.65;;;-5.80;97.50;;;;;;4377451;32;20478;-66
2022/01/23 15:06:25;;;;;;;4.97;2.85;;;-6.00;98.40;;;;;;4363415;32;20174;-66
2022/01/23 15:08:51;;;;;;;5.40;3.20;;;-5.90;98.60;;;;;;4351463;32;20066;-67
2022/01/23 15:11:17;;;;;;;6.55;3.37;;;-5.80;98.40;;;;;;4378777;32;20073;-67
2022/01/23 15:13:44;;;;;;;5.90;3.17;;;-5.80;98.30;;;;;;4380495;32;20124;-67
2022/01/23 15:16:12;;;;;;;5.45;3.30;;;-5.70;98.20;;;;;;4369661;32;20071;-67
2022/01/23 15:18:38;;;;;;;5.00;3.33;;;-5.80;97.60;;;;;;4355722;32;20062;-66
2022/01/23 15:21:06;;;;;;;5.37;3.40;;;-5.70;98.30;;;;;;4366287;32;20066;-66
2022/01/23 15:23:33;;;;;;;5.30;2.95;;;-5.80;98.20;;;;;;4353345;32;20101;-67
2022/01/23 15:25:59;;;;;;;5.68;3.40;;;-5.70;98.30;;;;;;4351012;32;20082;-66
2022/01/23 15:28:26;;;;;;;6.25;3.53;;;-5.70;98.30;;;;;;4377346;32;20425;-67
2022/01/23 15:30:53;;;;;;;9.68;3.85;;;-5.60;99.80;;;;;;4354385;32;20081;-69
2022/01/23 15:33:19;;;;;;;6.85;4.37;;;-5.70;99.50;;;;;;4344920;32;20075;-66
2022/01/23 15:35:49;;;;;;;7.37;3.60;;;-5.80;98.90;;;;;;4363215;32;20082;-66
2022/01/23 15:38:18;;;;;;;6.53;3.65;;;-5.90;99.90;;;;;;4350798;32;20082;-66
2022/01/23 15:40:45;;;;;;;6.35;3.83;;;-5.80;99.80;;;;;;4350352;32;20547;-66
2022/01/23 15:43:12;;;;;;;6.68;3.50;;;-5.90;99.90;;;;;;4337968;32;20097;-66
2022/01/23 15:45:39;;;;;;;6.20;3.75;;;-6.00;99.90;;;;;;4362552;32;20071;-66
2022/01/23 15:48:06;;;;;;;7.65;4.12;;;-5.90;99.90;;;;;;4362323;32;20154;-66
2022/01/23 15:50:32;;;;;;;8.23;4.40;;;-5.90;99.90;;;;;;4362139;32;20085;-66
2022/01/23 15:52:58;;;;;;;7.15;4.18;;;-5.90;99.90;;;;;;4337902;32;20530;-66
2022/01/23 15:55:28;;;;;;;8.50;4.60;;;-6.00;99.90;;;;;;4362911;32;20070;-66
2022/01/23 15:57:57;;;;;;;8.98;4.28;;;-6.00;99.90;;;;;;4362606;32;20078;-68
2022/01/23 16:00:25;;;;;;;6.80;4.22;;;-6.20;99.90;;;;;;4350489;32;20093;-66
2022/01/23 16:02:52;;;;;;;6.93;4.18;;;-6.20;99.90;;;;;;4350119;32;20097;-66
2022/01/23 16:05:20;;;;;;;7.12;4.32;;;-6.10;99.90;;;;;;4362528;32;20094;-67
2022/01/23 16:07:47;;;;;;;8.25;4.85;;;-6.40;99.90;;;;;;4350118;32;20097;-66
2022/01/23 16:10:13;;;;;;;7.80;4.30;;;-6.30;99.90;;;;;;4349947;32;20553;-66
2022/01/23 16:12:41;;;;;;;11.25;4.90;;;-6.10;99.90;;;;;;4363212;32;20496;-66
2022/01/23 16:15:17;;;;;;;6.78;4.45;;;-6.10;99.90;;;;;;4363024;32;20082;-67
2022/01/23 16:17:45;;;;;;;8.40;4.78;;;-6.20;99.90;;;;;;4364154;32;20502;-68
2022/01/23 16:20:13;;;;;;;7.43;3.95;;;-6.10;99.90;;;;;;4351597;32;20090;-68
2022/01/23 16:22:41;;;;;;;7.80;4.07;;;-6.20;99.90;;;;;;4363592;32;20581;-68
2022/01/23 16:25:10;;;;;;;9.23;4.68;;;-6.30;99.90;;;;;;4350646;32;20086;-66
2022/01/23 16:27:37;;;;;;;8.18;4.53;;;-6.20;99.90;;;;;;4350837;32;20090;-66
2022/01/23 16:30:06;;;;;;;9.77;4.40;;;-6.30;99.90;;;;;;4376675;32;20093;-66
2022/01/23 16:32:32;;;;;;;8.93;4.22;;;-6.20;99.90;;;;;;4376083;32;20144;-66
2022/01/23 16:34:59;;;;;;;8.20;4.40;;;-6.30;99.90;;;;;;4362575;32;20158;-66
2022/01/23 16:37:25;;;;;;;7.87;4.00;;;-6.30;99.90;;;;;;4350343;32;20508;-66
2022/01/23 16:39:51;;;;;;;7.85;4.40;;;-6.30;99.90;;;;;;4362378;32;20093;-66
2022/01/23 16:42:18;;;;;;;7.62;4.53;;;-6.30;99.90;;;;;;4362062;32;20106;-66